Time;durP1;ratioP1;P1;durP2;ratioP2;P2;SDS_P1;SDS_P2;PMS_P1;PMS_P2;Temp;Humidity;BMP_temperature;BMP_pressure;BME280_temperature;BME280_humidity;BME280_pressure;Samples;Min_cycle;Max_cycle;Signal;HPM_P1;HPM_P2
2021/06/02 00:05:01;;;;;;;11.27;7.37;;;15.60;85.80;;;;;;8386490;28;20197;-77
2021/06/02 00:09:02;;;;;;;7.20;6.50;;;15.50;85.30;;;;;;8384106;28;20475;-77
2021/06/02 00:13:03;;;;;;;8.30;7.50;;;15.50;87.20;;;;;;8383864;28;20435;-76
2021/06/02 00:17:05;;;;;;;7.53;6.67;;;15.40;87.40;;;;;;8384468;28;20443;-77
2021/06/02 00:21:06;;;;;;;7.23;6.50;;;15.40;86.40;;;;;;8383512;28;21261;-77
2021/06/02 00:25:08;;;;;;;9.30;8.40;;;15.40;87.60;;;;;;8383027;28;20520;-77
2021/06/02 00:29:15;;;;;;;8.00;7.30;;;15.30;88.20;;;;;;8385162;28;20748;-76
2021/06/02 00:33:16;;;;;;;8.40;7.60;;;15.20;89.60;;;;;;8389216;28;20479;-77
2021/06/02 00:37:17;;;;;;;8.00;7.30;;;15.10;89.60;;;;;;8385221;28;20556;-77
2021/06/02 00:41:19;;;;;;;7.70;7.07;;;15.00;89.20;;;;;;8380470;28;20469;-76
2021/06/02 00:45:20;;;;;;;9.10;8.20;;;14.90;89.70;;;;;;8384261;28;20530;-76
2021/06/02 00:49:23;;;;;;;8.53;7.73;;;14.80;90.10;;;;;;8383100;28;20473;-76
2021/06/02 00:53:24;;;;;;;10.30;9.30;;;14.70;90.40;;;;;;8386587;28;21360;-76
2021/06/02 00:57:31;;;;;;;10.30;8.63;;;14.60;90.50;;;;;;8382384;28;21506;-77
2021/06/02 01:01:34;;;;;;;10.27;8.43;;;14.50;90.80;;;;;;8385391;28;20610;-75
2021/06/02 01:05:36;;;;;;;12.50;8.97;;;14.40;91.00;;;;;;8383090;28;20459;-75
2021/06/02 01:09:44;;;;;;;12.03;9.70;;;14.30;91.10;;;;;;8383090;28;20434;-75
2021/06/02 01:13:45;;;;;;;10.20;8.60;;;14.30;91.50;;;;;;8380601;28;20447;-75
2021/06/02 01:17:46;;;;;;;10.50;9.50;;;14.10;91.70;;;;;;8388297;28;20466;-75
2021/06/02 01:21:53;;;;;;;10.73;9.63;;;14.10;91.90;;;;;;8389012;28;20205;-74
2021/06/02 01:25:54;;;;;;;9.17;8.23;;;14.00;92.10;;;;;;8382123;28;20462;-75
2021/06/02 01:29:55;;;;;;;10.77;9.63;;;13.90;92.00;;;;;;8383771;28;20445;-75
2021/06/02 01:34:00;;;;;;;13.07;9.33;;;13.90;92.10;;;;;;8379585;28;20432;-74
2021/06/02 01:38:16;;;;;;;12.80;10.33;;;13.80;92.30;;;;;;8379775;28;20696;-74
2021/06/02 01:42:37;;;;;;;10.53;9.20;;;13.80;92.30;;;;;;8390899;28;20469;-74
2021/06/02 01:46:56;;;;;;;14.10;10.67;;;13.80;92.40;;;;;;8383241;28;20462;-74
2021/06/02 01:51:44;;;;;;;11.70;10.47;;;13.70;92.70;;;;;;8374870;28;20457;-74
2021/06/02 01:56:22;;;;;;;11.10;8.90;;;13.60;92.90;;;;;;8381052;28;20527;-75
2021/06/02 02:00:35;;;;;;;11.60;9.70;;;13.50;93.10;;;;;;8377341;28;20448;-75
2021/06/02 02:04:50;;;;;;;10.87;9.10;;;13.50;93.00;;;;;;8388932;28;20856;-74
2021/06/02 02:09:09;;;;;;;10.83;9.73;;;13.50;93.20;;;;;;8386120;28;21015;-74
2021/06/02 02:13:30;;;;;;;12.17;9.57;;;13.40;93.40;;;;;;8392874;28;20441;-75
2021/06/02 02:17:39;;;;;;;13.23;10.97;;;13.40;93.50;;;;;;8378368;28;20799;-74
2021/06/02 02:21:43;;;;;;;11.37;9.10;;;13.30;93.80;;;;;;8394348;28;20441;-74
2021/06/02 02:25:56;;;;;;;13.60;11.73;;;13.20;93.80;;;;;;8386117;28;20448;-74
2021/06/02 02:30:11;;;;;;;13.37;10.47;;;13.20;94.00;;;;;;8393950;28;20461;-75
2021/06/02 02:34:24;;;;;;;12.10;10.17;;;13.20;94.10;;;;;;8388771;28;22139;-75
2021/06/02 02:38:49;;;;;;;11.87;10.40;;;13.10;94.20;;;;;;8391996;28;20941;-75
2021/06/02 02:43:06;;;;;;;12.80;10.47;;;13.10;94.20;;;;;;8385750;28;20441;-74
2021/06/02 02:47:32;;;;;;;17.13;11.03;;;13.00;94.10;;;;;;8380656;28;20469;-75
2021/06/02 02:51:57;;;;;;;9.83;8.80;;;13.00;94.10;;;;;;8390470;28;20433;-75
2021/06/02 02:56:03;;;;;;;12.60;11.27;;;12.90;94.20;;;;;;8391793;28;20455;-75
2021/06/02 03:00:13;;;;;;;12.30;10.67;;;12.90;94.20;;;;;;8385115;28;20432;-75
2021/06/02 03:04:25;;;;;;;11.77;10.57;;;12.80;94.30;;;;;;8383591;28;20444;-75
2021/06/02 03:08:44;;;;;;;12.67;10.43;;;12.80;94.30;;;;;;8393303;28;20487;-75
2021/06/02 03:12:48;;;;;;;10.43;9.43;;;12.80;94.40;;;;;;8390266;28;20467;-74
2021/06/02 03:17:33;;;;;;;13.83;11.30;;;12.70;94.40;;;;;;8387110;28;20510;-75
2021/06/02 03:21:37;;;;;;;17.40;13.07;;;12.70;94.60;;;;;;8358488;28;21030;-75
2021/06/02 03:26:00;;;;;;;21.57;12.30;;;12.70;94.70;;;;;;8386512;28;20440;-74
2021/06/02 03:30:07;;;;;;;16.57;12.20;;;12.70;94.70;;;;;;8384546;28;21354;-75
2021/06/02 03:34:25;;;;;;;13.47;11.73;;;12.60;94.80;;;;;;8386584;28;20444;-74
2021/06/02 03:38:57;;;;;;;15.87;12.30;;;12.60;94.90;;;;;;8398594;28;20433;-74
2021/06/02 03:43:22;;;;;;;20.20;13.87;;;12.60;95.00;;;;;;8384121;28;20433;-76
2021/06/02 03:47:46;;;;;;;15.33;12.60;;;12.60;95.00;;;;;;8390754;28;20551;-75
2021/06/02 03:52:01;;;;;;;20.00;12.23;;;12.60;95.10;;;;;;8384036;28;20460;-74
2021/06/02 03:56:32;;;;;;;17.10;12.67;;;12.60;94.90;;;;;;8388146;28;21023;-74
2021/06/02 04:00:38;;;;;;;13.30;11.80;;;12.60;95.00;;;;;;8384654;28;20452;-74
2021/06/02 04:04:55;;;;;;;19.40;13.60;;;12.60;95.30;;;;;;8383893;28;20464;-74
2021/06/02 04:09:08;;;;;;;15.73;11.33;;;12.60;95.00;;;;;;8383152;28;20531;-75
2021/06/02 04:13:12;;;;;;;15.03;12.17;;;12.70;95.00;;;;;;8391625;28;20446;-75
2021/06/02 04:17:14;;;;;;;14.83;10.83;;;12.70;94.90;;;;;;8386903;28;21018;-75
2021/06/02 04:21:17;;;;;;;23.40;13.40;;;12.70;94.90;;;;;;8384233;28;20440;-75
2021/06/02 04:25:18;;;;;;;14.90;12.40;;;12.80;95.00;;;;;;8385049;28;20441;-75
2021/06/02 04:29:19;;;;;;;15.60;13.07;;;12.80;95.00;;;;;;8379725;28;20617;-75
2021/06/02 04:33:23;;;;;;;21.50;14.03;;;12.90;95.00;;;;;;8374560;28;20182;-73
2021/06/02 04:37:24;;;;;;;24.37;13.80;;;12.90;95.00;;;;;;8376006;28;20191;-73
2021/06/02 04:41:28;;;;;;;23.80;15.40;;;13.00;95.10;;;;;;8374661;28;20440;-73
2021/06/02 04:45:34;;;;;;;18.07;14.80;;;13.20;95.10;;;;;;8376166;28;20573;-73
2021/06/02 04:50:13;;;;;;;16.57;12.90;;;13.30;95.10;;;;;;8375696;28;20454;-73
2021/06/02 04:54:51;;;;;;;15.57;13.07;;;13.50;94.70;;;;;;8394245;28;20432;-75
2021/06/02 04:59:24;;;;;;;14.60;12.87;;;13.50;94.60;;;;;;8375012;28;20464;-75
2021/06/02 05:04:02;;;;;;;20.77;13.80;;;13.70;94.50;;;;;;8360912;28;20456;-75
2021/06/02 05:08:39;;;;;;;16.60;13.10;;;13.80;94.30;;;;;;8383567;28;20474;-74
2021/06/02 05:12:54;;;;;;;18.50;14.53;;;14.00;94.20;;;;;;8379307;28;20495;-74
2021/06/02 05:17:01;;;;;;;17.27;13.80;;;14.20;94.30;;;;;;8398131;28;20449;-74
2021/06/02 05:26:00;;;;;;;15.20;12.10;;;14.60;93.80;;;;;;8381354;28;20808;-75
2021/06/02 05:30:40;;;;;;;16.30;12.87;;;14.80;93.90;;;;;;8377130;28;20508;-76
2021/06/02 05:35:01;;;;;;;16.97;13.53;;;15.00;93.90;;;;;;8391258;28;20542;-75
2021/06/02 05:39:12;;;;;;;14.10;12.20;;;15.20;93.90;;;;;;8376928;28;20439;-74
2021/06/02 05:43:44;;;;;;;19.33;14.67;;;15.40;94.10;;;;;;8376851;28;20446;-75
2021/06/02 05:47:48;;;;;;;14.67;11.67;;;15.70;94.10;;;;;;8374673;28;20758;-75
2021/06/02 05:52:00;;;;;;;13.53;7.90;;;15.90;94.10;;;;;;8378953;28;20436;-74
2021/06/02 05:56:35;;;;;;;8.40;7.53;;;16.30;93.30;;;;;;8368649;28;20459;-75
2021/06/02 06:01:03;;;;;;;8.10;7.17;;;16.70;92.40;;;;;;8377057;28;20495;-75
2021/06/02 06:05:16;;;;;;;5.80;5.23;;;17.30;90.90;;;;;;8395955;28;20837;-77
2021/06/02 06:09:32;;;;;;;9.77;4.80;;;18.00;86.90;;;;;;8394250;28;20828;-75
2021/06/02 06:14:00;;;;;;;5.87;5.37;;;18.60;83.40;;;;;;8403249;28;20601;-75
2021/06/02 06:18:01;;;;;;;8.87;5.03;;;19.20;81.40;;;;;;8377332;28;20837;-75
2021/06/02 06:22:05;;;;;;;16.23;6.10;;;19.70;79.10;;;;;;8385073;28;21322;-74
2021/06/02 06:26:16;;;;;;;6.00;5.50;;;20.20;77.20;;;;;;8389726;28;20237;-75
2021/06/02 06:30:25;;;;;;;5.30;4.90;;;20.70;76.50;;;;;;8392236;28;22315;-75
2021/06/02 06:34:35;;;;;;;5.87;5.37;;;21.20;76.00;;;;;;8403280;28;20506;-76
2021/06/02 06:39:15;;;;;;;8.17;5.50;;;21.70;74.70;;;;;;8391480;28;20847;-75
2021/06/02 06:43:16;;;;;;;7.23;5.83;;;22.10;73.70;;;;;;8363934;28;20439;-75
2021/06/02 06:47:19;;;;;;;7.30;5.50;;;22.40;72.70;;;;;;8411270;28;20462;-76
2021/06/02 06:51:24;;;;;;;6.80;5.90;;;22.60;73.10;;;;;;8392914;28;20465;-75
2021/06/02 06:55:25;;;;;;;8.83;5.80;;;22.70;71.80;;;;;;8392748;28;20554;-75
2021/06/02 06:59:26;;;;;;;6.43;5.10;;;22.70;70.80;;;;;;8390363;28;20442;-75
2021/06/02 07:03:27;;;;;;;6.13;5.63;;;22.70;71.40;;;;;;8393617;28;21461;-74
2021/06/02 07:07:28;;;;;;;6.00;4.70;;;22.80;71.70;;;;;;8394422;28;21050;-74
2021/06/02 07:11:36;;;;;;;6.60;5.23;;;23.00;71.20;;;;;;8382270;28;20205;-77
2021/06/02 07:15:37;;;;;;;5.80;5.17;;;23.00;68.50;;;;;;8386846;28;20326;-76
2021/06/02 07:19:42;;;;;;;5.30;4.70;;;23.20;68.60;;;;;;8387167;28;20420;-75
2021/06/02 07:23:43;;;;;;;6.90;5.03;;;23.40;69.00;;;;;;8385656;28;20462;-75
2021/06/02 07:27:48;;;;;;;5.30;4.80;;;23.50;68.50;;;;;;8388120;28;20888;-75
2021/06/02 07:31:49;;;;;;;8.73;4.80;;;23.80;69.40;;;;;;8387478;28;20448;-75
2021/06/02 07:35:49;;;;;;;4.33;4.03;;;24.00;68.00;;;;;;8387833;28;20446;-73
2021/06/02 07:39:50;;;;;;;4.47;4.03;;;24.20;66.50;;;;;;8391286;28;20190;-75
2021/06/02 07:43:55;;;;;;;5.50;4.70;;;24.20;65.90;;;;;;8390001;28;20186;-77
2021/06/02 07:47:56;;;;;;;7.27;4.30;;;24.40;65.80;;;;;;8384255;28;20210;-76
2021/06/02 07:52:00;;;;;;;5.37;4.87;;;24.50;65.60;;;;;;8393790;28;20443;-75
2021/06/02 07:56:01;;;;;;;5.40;4.60;;;24.50;65.10;;;;;;8388180;28;20272;-75
2021/06/02 08:00:06;;;;;;;6.10;4.90;;;24.60;65.90;;;;;;8385446;28;20523;-75
2021/06/02 08:04:07;;;;;;;5.53;4.93;;;24.80;66.10;;;;;;8385481;28;20266;-74
2021/06/02 08:08:09;;;;;;;7.10;4.60;;;24.90;65.40;;;;;;8389917;28;20518;-74
2021/06/02 08:12:11;;;;;;;4.83;4.17;;;25.00;64.40;;;;;;8385534;28;20547;-75
2021/06/02 08:16:11;;;;;;;6.30;5.00;;;25.10;64.60;;;;;;8388877;28;20448;-74
2021/06/02 08:20:14;;;;;;;6.10;4.80;;;25.20;64.60;;;;;;8395855;28;20525;-75
2021/06/02 08:24:15;;;;;;;5.63;5.13;;;25.30;63.40;;;;;;8387133;28;20186;-75
2021/06/02 08:28:16;;;;;;;7.13;4.17;;;25.50;62.70;;;;;;8385857;28;20463;-76
2021/06/02 08:32:18;;;;;;;4.43;4.13;;;25.60;62.40;;;;;;8385199;28;20459;-76
2021/06/02 08:36:19;;;;;;;4.80;3.70;;;25.90;61.20;;;;;;8386208;28;20186;-75
2021/06/02 08:40:20;;;;;;;10.53;4.10;;;26.10;60.40;;;;;;8381752;28;20436;-76
2021/06/02 08:44:21;;;;;;;4.77;4.30;;;26.50;58.00;;;;;;8387493;28;20682;-75
2021/06/02 08:48:23;;;;;;;5.50;3.80;;;26.80;55.50;;;;;;8388259;28;20216;-75
2021/06/02 08:52:24;;;;;;;5.83;3.50;;;27.20;54.20;;;;;;8381343;28;20489;-76
2021/06/02 08:56:24;;;;;;;6.30;2.63;;;27.70;51.50;;;;;;8383619;28;20448;-75
2021/06/02 09:00:27;;;;;;;10.67;3.10;;;28.40;50.30;;;;;;8383093;28;20444;-75
2021/06/02 09:04:28;;;;;;;6.33;3.30;;;29.10;47.70;;;;;;8374130;28;20779;-72
2021/06/02 09:08:28;;;;;;;3.87;3.50;;;29.40;46.70;;;;;;8382710;28;20468;-76
2021/06/02 09:12:56;;;;;;;4.30;3.37;;;30.00;48.00;;;;;;8395527;28;20456;-76
2021/06/02 09:16:59;;;;;;;10.83;3.57;;;30.40;45.60;;;;;;8379964;28;20294;-76
2021/06/02 09:20:59;;;;;;;6.40;2.90;;;30.00;43.90;;;;;;8386049;28;20445;-77
2021/06/02 09:25:03;;;;;;;5.63;3.47;;;29.60;43.30;;;;;;8383688;28;20504;-75
2021/06/02 09:29:10;;;;;;;3.33;3.07;;;29.40;43.90;;;;;;8381805;28;20193;-75
2021/06/02 09:33:11;;;;;;;5.00;3.00;;;29.40;43.80;;;;;;8386706;28;21224;-76
2021/06/02 09:37:12;;;;;;;4.23;2.63;;;29.60;42.60;;;;;;8386315;28;20946;-77
2021/06/02 09:41:13;;;;;;;3.13;2.20;;;30.20;39.60;;;;;;8389892;28;20179;-76
2021/06/02 09:45:15;;;;;;;2.63;2.43;;;30.40;38.40;;;;;;8379676;28;20587;-77
2021/06/02 09:49:16;;;;;;;1.97;1.87;;;30.60;38.50;;;;;;8388018;28;20576;-78
2021/06/02 09:53:17;;;;;;;2.00;1.90;;;30.90;38.70;;;;;;8389380;28;20448;-77
2021/06/02 09:57:20;;;;;;;5.37;2.57;;;31.40;38.40;;;;;;8383161;28;20461;-78
2021/06/02 10:01:23;;;;;;;4.47;2.23;;;31.60;38.30;;;;;;8382366;28;20273;-76
2021/06/02 10:05:24;;;;;;;2.83;2.20;;;31.80;38.60;;;;;;8380865;28;20797;-77
2021/06/02 10:09:31;;;;;;;18.70;2.97;;;31.60;38.00;;;;;;8389786;28;20841;-76
2021/06/02 10:13:32;;;;;;;2.37;2.23;;;31.40;38.60;;;;;;8390159;28;20190;-77
2021/06/02 10:17:38;;;;;;;2.93;2.30;;;31.20;37.70;;;;;;8384511;28;20539;-77
2021/06/02 10:21:56;;;;;;;3.33;2.60;;;30.90;38.30;;;;;;8382901;28;20259;-77
2021/06/02 10:25:58;;;;;;;3.10;2.80;;;31.00;38.80;;;;;;8384424;28;20425;-77
2021/06/02 10:29:59;;;;;;;3.07;2.60;;;31.10;38.80;;;;;;8386760;28;20437;-77
2021/06/02 10:34:00;;;;;;;4.40;2.03;;;31.20;39.50;;;;;;8389748;28;20475;-76
2021/06/02 10:38:01;;;;;;;2.60;2.40;;;31.20;39.30;;;;;;8381508;28;20340;-75
2021/06/02 10:42:07;;;;;;;6.33;2.87;;;31.10;39.60;;;;;;8384015;28;20444;-76
2021/06/02 10:46:14;;;;;;;3.23;2.80;;;31.20;39.40;;;;;;8388758;28;20485;-77
2021/06/02 10:50:28;;;;;;;9.27;2.60;;;31.20;40.00;;;;;;8385895;28;20472;-76
2021/06/02 10:54:30;;;;;;;5.33;2.80;;;31.30;39.90;;;;;;8401887;28;20459;-75
2021/06/02 10:58:32;;;;;;;6.57;2.40;;;31.20;39.80;;;;;;8395168;28;20555;-75
2021/06/02 11:02:36;;;;;;;3.70;2.63;;;31.10;40.40;;;;;;8390543;28;20437;-77
2021/06/02 11:06:39;;;;;;;6.77;2.83;;;31.20;39.50;;;;;;8391242;28;20444;-76
2021/06/02 11:10:51;;;;;;;2.73;2.60;;;31.00;39.70;;;;;;8379989;28;20444;-75
2021/06/02 11:14:53;;;;;;;2.80;2.30;;;31.00;39.90;;;;;;8393079;28;20445;-75
2021/06/02 11:19:13;;;;;;;5.27;2.87;;;31.10;40.40;;;;;;8383175;28;20611;-75
2021/06/02 11:23:16;;;;;;;2.60;2.40;;;31.30;39.50;;;;;;8382946;28;21048;-72
2021/06/02 11:27:17;;;;;;;7.10;2.50;;;31.30;39.00;;;;;;8372981;28;20536;-72
2021/06/02 11:31:24;;;;;;;4.10;2.10;;;31.50;39.70;;;;;;8369544;28;20444;-76
2021/06/02 11:35:53;;;;;;;3.83;2.83;;;31.60;39.30;;;;;;8391602;28;20278;-72
2021/06/02 11:39:56;;;;;;;5.60;2.53;;;31.80;39.40;;;;;;8394105;28;20766;-72
2021/06/02 11:43:59;;;;;;;4.60;2.40;;;32.00;38.30;;;;;;8375939;28;20495;-74
2021/06/02 11:48:03;;;;;;;2.90;2.43;;;32.20;38.10;;;;;;8385301;28;20961;-72
2021/06/02 11:52:09;;;;;;;3.63;2.20;;;32.20;38.60;;;;;;8386158;28;20534;-74
2021/06/02 11:56:11;;;;;;;4.00;2.40;;;32.10;38.00;;;;;;8370152;28;20473;-72
2021/06/02 12:00:12;;;;;;;2.23;2.13;;;32.30;37.80;;;;;;8368124;28;20433;-71
2021/06/02 12:04:26;;;;;;;4.00;2.50;;;32.30;37.10;;;;;;8377518;28;20433;-73
2021/06/02 12:08:27;;;;;;;3.40;3.13;;;32.40;36.80;;;;;;8378791;28;20197;-73
2021/06/02 12:12:41;;;;;;;2.20;2.10;;;32.30;36.80;;;;;;8373099;28;20506;-73
2021/06/02 12:16:42;;;;;;;3.37;2.50;;;32.40;36.80;;;;;;8378891;28;20207;-72
2021/06/02 12:20:43;;;;;;;2.37;2.27;;;32.20;36.60;;;;;;8379954;28;20437;-73
2021/06/02 12:25:09;;;;;;;3.40;2.40;;;32.20;36.40;;;;;;8380145;28;20179;-73
2021/06/02 12:29:14;;;;;;;3.43;2.13;;;32.20;37.00;;;;;;8384875;28;20194;-72
2021/06/02 12:33:15;;;;;;;2.83;2.40;;;32.40;37.10;;;;;;8380298;28;20433;-71
2021/06/02 12:37:15;;;;;;;7.17;2.43;;;32.50;36.10;;;;;;8361478;28;20564;-72
2021/06/02 12:41:24;;;;;;;5.17;2.57;;;32.60;36.30;;;;;;8371873;28;20186;-72
2021/06/02 12:45:28;;;;;;;5.20;2.20;;;32.60;35.90;;;;;;8373385;28;20212;-73
2021/06/02 12:49:31;;;;;;;2.50;1.80;;;32.50;35.60;;;;;;8371564;28;20561;-73
2021/06/02 12:53:42;;;;;;;2.37;2.27;;;32.40;35.40;;;;;;8372741;28;21269;-72
2021/06/02 12:57:43;;;;;;;3.83;2.43;;;32.40;36.10;;;;;;8361683;28;20479;-72
2021/06/02 13:01:44;;;;;;;8.90;2.40;;;32.50;35.50;;;;;;8367073;28;20470;-73
2021/06/02 13:05:47;;;;;;;3.70;1.93;;;32.40;35.90;;;;;;8366373;28;20437;-73
2021/06/02 13:09:47;;;;;;;3.87;2.70;;;32.40;35.50;;;;;;8371391;28;21062;-73
2021/06/02 13:13:49;;;;;;;2.93;2.20;;;32.50;36.40;;;;;;8370422;28;20433;-72
2021/06/02 13:17:50;;;;;;;4.70;2.63;;;32.70;36.00;;;;;;8369974;28;20198;-72
2021/06/02 13:21:51;;;;;;;2.80;2.43;;;32.90;35.70;;;;;;8366451;28;20445;-73
2021/06/02 13:26:07;;;;;;;2.57;2.37;;;32.70;36.10;;;;;;8362470;28;20232;-72
2021/06/02 13:30:10;;;;;;;6.13;2.67;;;32.70;36.20;;;;;;8372402;28;20441;-74
2021/06/02 13:34:35;;;;;;;3.83;2.40;;;32.80;35.90;;;;;;8370071;28;20498;-75
2021/06/02 13:38:36;;;;;;;2.00;1.90;;;32.70;35.30;;;;;;8372933;28;20468;-76
2021/06/02 13:43:00;;;;;;;4.10;2.70;;;32.50;35.90;;;;;;8372902;28;20509;-75
2021/06/02 13:47:00;;;;;;;4.33;2.23;;;32.50;35.20;;;;;;8358372;28;20472;-77
2021/06/02 13:51:20;;;;;;;2.97;2.43;;;32.50;36.30;;;;;;8373566;28;20487;-78
2021/06/02 13:55:23;;;;;;;4.83;2.10;;;32.70;36.00;;;;;;8384939;28;20186;-76
2021/06/02 13:59:54;;;;;;;2.47;2.27;;;32.70;35.80;;;;;;8365174;28;20476;-77
2021/06/02 14:03:55;;;;;;;3.53;2.50;;;32.90;36.30;;;;;;8372673;28;20522;-78
2021/06/02 14:07:56;;;;;;;2.80;2.47;;;32.80;35.80;;;;;;8381824;28;21081;-77
2021/06/02 14:11:57;;;;;;;4.13;2.60;;;32.80;36.10;;;;;;8384958;28;20861;-77
2021/06/02 14:15:57;;;;;;;5.07;2.20;;;32.60;36.00;;;;;;8384569;28;20183;-78
2021/06/02 14:19:58;;;;;;;3.57;2.67;;;32.60;36.20;;;;;;8386381;28;20650;-79
2021/06/02 14:23:59;;;;;;;12.03;3.07;;;32.50;35.70;;;;;;8383129;28;20232;-76
2021/06/02 14:28:00;;;;;;;10.13;2.60;;;32.40;36.00;;;;;;8380717;28;20179;-78
2021/06/02 14:32:02;;;;;;;11.20;2.50;;;32.30;36.10;;;;;;8386351;28;20432;-77
2021/06/02 14:36:03;;;;;;;11.63;2.97;;;32.40;35.90;;;;;;8368297;28;20181;-78
2021/06/02 14:40:05;;;;;;;2.40;2.30;;;32.30;35.90;;;;;;8388334;28;20534;-79
2021/06/02 14:44:07;;;;;;;2.60;2.40;;;32.20;36.20;;;;;;8417668;28;20498;-78
2021/06/02 14:48:07;;;;;;;9.27;3.67;;;32.40;35.90;;;;;;8383680;28;20529;-77
2021/06/02 14:52:08;;;;;;;2.40;2.23;;;32.30;36.30;;;;;;8397056;28;20529;-79
2021/06/02 14:56:12;;;;;;;4.50;2.73;;;31.90;36.30;;;;;;8400421;28;20179;-80
2021/06/02 15:00:15;;;;;;;4.20;3.03;;;31.80;37.30;;;;;;8398818;28;20189;-77
2021/06/02 15:04:21;;;;;;;5.67;2.37;;;32.10;36.80;;;;;;8405268;28;20437;-80
2021/06/02 15:08:23;;;;;;;4.70;2.40;;;32.20;36.60;;;;;;8390923;28;20443;-78
2021/06/02 15:12:24;;;;;;;4.83;2.77;;;32.10;36.20;;;;;;8395899;28;20579;-77
2021/06/02 15:16:32;;;;;;;2.67;2.47;;;32.00;37.50;;;;;;8404509;28;20461;-81
2021/06/02 15:20:36;;;;;;;3.87;2.63;;;32.10;37.30;;;;;;8398926;28;20182;-78
2021/06/02 15:24:38;;;;;;;5.10;2.20;;;32.40;36.50;;;;;;8396610;28;20429;-82
2021/06/02 15:28:42;;;;;;;6.00;2.60;;;32.40;36.40;;;;;;8403660;28;20441;-78
2021/06/02 15:32:43;;;;;;;5.47;2.77;;;32.50;37.20;;;;;;8403361;28;21355;-82
2021/06/02 15:36:45;;;;;;;6.00;2.80;;;32.50;37.10;;;;;;8399324;28;20892;-79
2021/06/02 15:40:47;;;;;;;2.60;2.40;;;32.50;37.00;;;;;;8405189;28;20556;-81
2021/06/02 15:44:50;;;;;;;2.80;2.60;;;32.40;37.20;;;;;;8409616;28;20797;-80
2021/06/02 15:48:50;;;;;;;3.70;2.50;;;32.20;36.90;;;;;;8401080;28;20472;-79
2021/06/02 15:52:53;;;;;;;13.93;3.40;;;32.00;37.30;;;;;;8397113;28;20449;-78
2021/06/02 15:56:55;;;;;;;2.40;2.20;;;31.70;37.90;;;;;;8403836;28;20195;-78
2021/06/02 16:00:56;;;;;;;2.67;2.43;;;31.80;37.40;;;;;;8382907;28;20445;-79
2021/06/02 16:04:57;;;;;;;8.37;3.47;;;31.40;37.30;;;;;;8395122;28;20511;-78
2021/06/02 16:08:59;;;;;;;3.73;2.67;;;30.90;38.00;;;;;;8400513;28;20193;-79
2021/06/02 16:13:04;;;;;;;3.00;2.60;;;30.50;38.60;;;;;;8399804;28;20211;-78
2021/06/02 16:17:04;;;;;;;15.70;5.13;;;30.30;39.20;;;;;;8406825;28;20475;-78
2021/06/02 16:21:05;;;;;;;8.70;3.80;;;30.10;39.60;;;;;;8387180;28;20446;-77
2021/06/02 16:25:06;;;;;;;2.70;2.50;;;29.70;40.10;;;;;;8377258;28;20185;-77
2021/06/02 16:29:08;;;;;;;7.53;3.40;;;29.60;40.40;;;;;;8384115;28;20203;-78
2021/06/02 16:33:09;;;;;;;8.47;3.80;;;29.40;40.70;;;;;;8391510;28;20447;-77
2021/06/02 16:37:10;;;;;;;3.83;3.37;;;29.30;40.90;;;;;;8394384;28;20461;-75
2021/06/02 16:41:11;;;;;;;3.13;2.73;;;29.30;41.10;;;;;;8381473;28;20712;-77
